createdAt,value
2022-07-31T00:01:59.054Z,17.40
2022-07-31T00:04:45.154Z,17.30
2022-07-31T00:07:31.041Z,17.20
2022-07-31T00:10:17.235Z,17.10
2022-07-31T00:13:03.643Z,17.20
2022-07-31T00:15:49.926Z,17.30
2022-07-31T00:18:35.925Z,17.50
2022-07-31T00:21:21.816Z,17.60
2022-07-31T00:24:07.838Z,17.70
2022-07-31T00:26:53.752Z,17.80
2022-07-31T00:29:40.184Z,17.80
2022-07-31T00:32:26.237Z,17.80
2022-07-31T00:35:14.136Z,17.80
2022-07-31T00:38:25.577Z,17.70
2022-07-31T00:41:06.375Z,17.50
2022-07-31T00:43:52.902Z,17.50
2022-07-31T00:46:39.022Z,17.60
2022-07-31T00:49:26.714Z,17.70
2022-07-31T00:52:23.294Z,17.70
2022-07-31T00:55:09.745Z,17.60
2022-07-31T00:57:56.030Z,17.30
2022-07-31T01:00:42.376Z,16.90
2022-07-31T01:03:28.581Z,16.70
2022-07-31T01:06:15.402Z,16.60
2022-07-31T01:09:01.370Z,16.50
2022-07-31T01:12:02.875Z,16.50
2022-07-31T01:14:54.002Z,16.70
2022-07-31T01:17:41.667Z,16.70
2022-07-31T01:20:29.199Z,16.90
2022-07-31T01:23:34.953Z,17.00
2022-07-31T01:26:56.252Z,17.10
2022-07-31T01:29:46.345Z,17.20
2022-07-31T01:32:38.530Z,17.20
2022-07-31T01:35:35.265Z,17.30
2022-07-31T01:38:25.937Z,17.30
2022-07-31T01:41:15.767Z,17.40
2022-07-31T01:44:04.432Z,17.30
2022-07-31T01:46:53.235Z,17.30
2022-07-31T01:49:41.766Z,17.20
2022-07-31T01:52:30.054Z,17.20
2022-07-31T01:55:17.670Z,17.20
2022-07-31T01:58:05.748Z,17.30
2022-07-31T02:00:55.216Z,17.30
2022-07-31T02:03:45.591Z,17.40
2022-07-31T02:06:35.158Z,17.40
2022-07-31T02:09:23.277Z,17.40
2022-07-31T02:12:12.003Z,17.50
2022-07-31T02:14:58.627Z,17.50
2022-07-31T02:17:46.133Z,17.70
2022-07-31T02:20:56.348Z,17.70
2022-07-31T02:23:44.978Z,17.80
2022-07-31T02:26:34.553Z,17.70
2022-07-31T02:29:22.833Z,17.60
2022-07-31T02:32:09.204Z,17.50
2022-07-31T02:34:56.865Z,17.30
2022-07-31T02:37:44.962Z,17.10
2022-07-31T02:40:31.262Z,17.10
2022-07-31T02:43:18.748Z,17.00
2022-07-31T02:46:06.787Z,16.90
2022-07-31T02:48:53.908Z,16.90
2022-07-31T02:51:43.575Z,17.00
2022-07-31T02:54:30.249Z,17.10
2022-07-31T02:57:17.457Z,17.10
2022-07-31T03:00:30.950Z,17.20
2022-07-31T03:03:17.803Z,17.20
2022-07-31T03:06:04.515Z,17.20
2022-07-31T03:08:51.757Z,17.30
2022-07-31T03:11:40.933Z,17.30
2022-07-31T03:14:32.669Z,17.40
2022-07-31T03:17:20.035Z,17.40
2022-07-31T03:20:07.905Z,17.40
2022-07-31T03:22:53.961Z,17.50
2022-07-31T03:25:42.058Z,17.50
2022-07-31T03:28:28.897Z,17.60
2022-07-31T03:31:15.341Z,17.50
2022-07-31T03:34:01.925Z,17.60
2022-07-31T03:36:48.837Z,17.60
2022-07-31T03:39:35.574Z,17.50
2022-07-31T03:42:28.497Z,17.50
2022-07-31T03:45:16.274Z,17.50
2022-07-31T03:48:02.995Z,17.50
2022-07-31T03:50:50.549Z,17.40
2022-07-31T03:53:37.452Z,17.40
2022-07-31T03:56:25.352Z,17.40
2022-07-31T03:59:12.057Z,17.40
2022-07-31T04:02:01.398Z,17.30
2022-07-31T04:04:58.074Z,17.30
2022-07-31T04:07:44.825Z,17.20
2022-07-31T04:10:30.938Z,17.20
2022-07-31T04:13:17.852Z,17.20
2022-07-31T04:16:03.931Z,17.20
2022-07-31T04:18:50.980Z,17.30
2022-07-31T04:21:37.974Z,17.30
2022-07-31T04:24:24.738Z,17.20
2022-07-31T04:27:36.155Z,17.20
2022-07-31T04:30:35.022Z,17.20
2022-07-31T04:33:23.591Z,17.20
2022-07-31T04:36:29.078Z,17.20
2022-07-31T04:39:15.850Z,17.20
2022-07-31T04:42:02.454Z,17.20
2022-07-31T04:44:52.014Z,17.20
2022-07-31T04:47:40.794Z,17.20
2022-07-31T04:50:26.661Z,17.20
2022-07-31T04:53:17.593Z,17.30
2022-07-31T04:56:23.256Z,17.30
2022-07-31T04:59:12.414Z,17.40
2022-07-31T05:02:01.415Z,17.40
2022-07-31T05:04:52.622Z,17.50
2022-07-31T05:07:45.679Z,17.50
2022-07-31T05:10:55.082Z,17.50
2022-07-31T05:13:42.044Z,17.60
2022-07-31T05:16:29.354Z,17.70
2022-07-31T05:19:16.886Z,17.70
2022-07-31T05:22:41.316Z,17.70
2022-07-31T05:25:52.749Z,17.70
2022-07-31T05:28:39.273Z,17.70
2022-07-31T05:31:25.806Z,17.70
2022-07-31T05:34:11.693Z,17.70
2022-07-31T05:37:01.066Z,17.70
2022-07-31T05:39:49.122Z,17.80
2022-07-31T05:42:55.225Z,18.00
2022-07-31T05:46:06.170Z,18.10
2022-07-31T05:48:52.322Z,18.10
2022-07-31T05:51:42.374Z,18.10
2022-07-31T05:54:29.003Z,18.10
2022-07-31T05:57:34.622Z,18.20
2022-07-31T06:00:22.531Z,18.20
2022-07-31T06:03:10.759Z,18.30
2022-07-31T06:06:17.040Z,18.30
2022-07-31T06:09:05.053Z,18.30
2022-07-31T06:11:55.774Z,18.40
2022-07-31T06:14:41.745Z,18.60
2022-07-31T06:17:51.247Z,18.80
2022-07-31T06:20:48.365Z,18.90
2022-07-31T06:23:34.469Z,19.00
2022-07-31T06:26:43.751Z,18.90
2022-07-31T06:29:41.467Z,19.10
2022-07-31T06:32:29.101Z,19.10
2022-07-31T06:35:15.103Z,19.30
2022-07-31T06:38:30.740Z,19.40
2022-07-31T06:41:44.405Z,19.50
2022-07-31T06:44:49.155Z,19.60
2022-07-31T06:47:54.490Z,19.60
2022-07-31T06:51:28.280Z,19.70
2022-07-31T06:54:12.025Z,19.70
2022-07-31T06:56:58.402Z,19.70
2022-07-31T06:59:44.641Z,19.70
2022-07-31T07:02:31.425Z,19.80
2022-07-31T07:05:17.989Z,19.80
2022-07-31T07:08:09.174Z,19.90
2022-07-31T07:10:55.356Z,20.00
2022-07-31T07:13:49.473Z,20.00
2022-07-31T07:16:36.943Z,20.10
2022-07-31T07:19:22.854Z,20.20
2022-07-31T07:22:08.941Z,20.20
2022-07-31T07:24:56.594Z,20.20
2022-07-31T07:27:42.972Z,20.20
2022-07-31T07:30:29.505Z,20.20
2022-07-31T07:33:41.489Z,20.20
2022-07-31T07:36:25.308Z,20.20
2022-07-31T07:39:15.997Z,20.30
2022-07-31T07:42:03.259Z,20.10
2022-07-31T07:44:49.904Z,20.20
2022-07-31T07:48:04.900Z,20.30
2022-07-31T07:50:43.954Z,20.50
2022-07-31T07:53:47.125Z,20.70
2022-07-31T07:56:39.097Z,20.80
2022-07-31T07:59:45.528Z,20.80
2022-07-31T08:03:47.439Z,20.80
2022-07-31T08:05:59.630Z,20.90
2022-07-31T08:08:45.541Z,21.00
2022-07-31T08:11:31.761Z,21.00
2022-07-31T08:14:28.897Z,21.10
2022-07-31T08:17:34.018Z,21.20
2022-07-31T08:20:20.733Z,21.30
2022-07-31T08:23:08.158Z,21.40
2022-07-31T08:25:55.383Z,21.50
2022-07-31T08:28:50.642Z,21.60
2022-07-31T08:31:39.461Z,21.70
2022-07-31T08:34:45.817Z,21.80
2022-07-31T08:37:52.338Z,21.90
2022-07-31T08:40:43.205Z,21.90
2022-07-31T08:44:00.066Z,22.10
2022-07-31T08:46:39.163Z,22.20
2022-07-31T08:49:29.488Z,22.30
2022-07-31T08:52:25.024Z,22.40
2022-07-31T08:55:55.195Z,22.50
2022-07-31T08:58:24.554Z,22.70
2022-07-31T09:01:15.126Z,22.70
2022-07-31T09:04:02.281Z,22.60
2022-07-31T09:06:48.489Z,22.60
2022-07-31T09:09:50.959Z,22.80
2022-07-31T09:12:38.056Z,23.00
2022-07-31T09:15:31.442Z,23.20
2022-07-31T09:18:22.110Z,23.30
2022-07-31T09:21:15.670Z,23.40
2022-07-31T09:24:01.812Z,23.60
2022-07-31T09:26:53.607Z,23.60
2022-07-31T09:29:45.385Z,23.60
2022-07-31T09:32:45.874Z,23.80
2022-07-31T09:35:50.788Z,24.00
2022-07-31T09:38:41.063Z,24.20
2022-07-31T09:42:00.954Z,24.40
2022-07-31T09:45:18.764Z,24.60
2022-07-31T09:48:08.298Z,24.90
2022-07-31T09:51:05.494Z,25.10
2022-07-31T09:53:56.489Z,25.30
2022-07-31T09:57:15.017Z,25.50
2022-07-31T10:00:11.768Z,25.70
2022-07-31T10:03:03.674Z,26.10
2022-07-31T10:05:51.774Z,26.40
2022-07-31T10:08:40.161Z,26.70
2022-07-31T10:11:46.206Z,26.90
2022-07-31T10:14:41.192Z,27.10
2022-07-31T10:17:35.997Z,27.30
2022-07-31T10:20:37.538Z,27.40
2022-07-31T10:23:54.103Z,27.40
2022-07-31T10:27:00.294Z,27.10
2022-07-31T10:29:49.777Z,27.00
2022-07-31T10:32:37.177Z,27.30
2022-07-31T10:36:05.770Z,27.30
2022-07-31T10:39:24.833Z,27.60
2022-07-31T10:42:31.573Z,27.80
2022-07-31T10:45:18.544Z,28.00
2022-07-31T10:48:12.546Z,27.90
2022-07-31T10:51:27.334Z,27.80
2022-07-31T10:54:17.750Z,27.60
2022-07-31T10:57:32.890Z,27.80
2022-07-31T11:00:38.670Z,28.00
2022-07-31T11:03:49.651Z,28.30
2022-07-31T11:06:40.792Z,28.20
2022-07-31T11:09:51.181Z,28.40
2022-07-31T11:13:05.080Z,28.60
2022-07-31T11:16:09.969Z,28.60
2022-07-31T11:19:09.556Z,28.60
2022-07-31T11:21:57.367Z,28.60
2022-07-31T11:24:55.409Z,28.30
2022-07-31T11:27:41.415Z,27.90
2022-07-31T11:30:27.485Z,27.70
2022-07-31T11:33:13.486Z,27.60
2022-07-31T11:36:07.882Z,27.30
2022-07-31T11:39:00.535Z,27.20
2022-07-31T11:41:48.610Z,26.90
2022-07-31T11:44:35.770Z,26.90
2022-07-31T11:48:09.705Z,26.90
2022-07-31T11:50:30.973Z,26.80
2022-07-31T11:53:18.523Z,26.70
2022-07-31T11:56:05.355Z,26.80
2022-07-31T11:58:53.791Z,27.00
2022-07-31T12:01:40.815Z,27.00
2022-07-31T12:04:27.141Z,27.00
2022-07-31T12:07:14.074Z,26.80
2022-07-31T12:10:03.417Z,26.70
2022-07-31T12:12:50.364Z,26.70
2022-07-31T12:15:36.749Z,26.80
2022-07-31T12:18:23.185Z,26.90
2022-07-31T12:21:12.053Z,27.10
2022-07-31T12:23:58.363Z,27.30
2022-07-31T12:26:50.950Z,27.40
2022-07-31T12:29:38.851Z,27.50
2022-07-31T12:32:26.479Z,27.70
2022-07-31T12:35:12.649Z,27.90
2022-07-31T12:37:58.853Z,28.00
2022-07-31T12:40:48.194Z,27.80
2022-07-31T12:43:34.179Z,27.80
2022-07-31T12:46:37.874Z,28.00
2022-07-31T12:49:24.153Z,27.80
2022-07-31T12:52:10.474Z,27.50
2022-07-31T12:54:57.046Z,27.30
2022-07-31T12:57:50.482Z,27.30
2022-07-31T13:00:40.131Z,27.40
2022-07-31T13:03:39.065Z,27.50
2022-07-31T13:06:32.152Z,27.50
2022-07-31T13:09:18.708Z,27.80
2022-07-31T13:12:05.480Z,27.80
2022-07-31T13:14:51.662Z,27.50
2022-07-31T13:17:41.040Z,27.20
2022-07-31T13:20:31.079Z,27.20
2022-07-31T13:23:17.555Z,27.70
2022-07-31T13:26:03.556Z,28.40
2022-07-31T13:28:49.561Z,29.00
2022-07-31T13:31:35.545Z,29.20
2022-07-31T13:34:21.467Z,29.10
2022-07-31T13:37:07.632Z,28.90
2022-07-31T13:39:53.982Z,28.70
2022-07-31T13:42:40.191Z,28.60
2022-07-31T13:45:26.623Z,28.70
2022-07-31T13:48:13.293Z,28.90
2022-07-31T13:50:59.725Z,29.20
2022-07-31T13:53:46.322Z,29.30
2022-07-31T13:56:38.781Z,29.40
2022-07-31T13:59:29.644Z,29.50
2022-07-31T14:02:16.038Z,29.40
2022-07-31T14:05:02.714Z,29.20
2022-07-31T14:07:51.836Z,29.00
2022-07-31T14:10:39.621Z,28.80
2022-07-31T14:13:28.970Z,28.70
2022-07-31T14:16:14.851Z,28.40
2022-07-31T14:19:01.477Z,28.20
2022-07-31T14:21:50.040Z,28.10
2022-07-31T14:24:49.372Z,28.20
2022-07-31T14:27:38.689Z,28.10
2022-07-31T14:30:25.094Z,28.00
2022-07-31T14:33:13.781Z,28.20
2022-07-31T14:35:59.971Z,28.40
2022-07-31T14:38:45.975Z,28.50
2022-07-31T14:41:31.901Z,28.50
2022-07-31T14:44:21.459Z,28.40
2022-07-31T14:47:15.147Z,28.30
2022-07-31T14:50:07.334Z,28.30
2022-07-31T14:52:56.705Z,28.30
2022-07-31T14:55:43.017Z,28.20
2022-07-31T14:58:28.999Z,28.20
2022-07-31T15:01:15.535Z,28.30
2022-07-31T15:04:02.142Z,28.20
2022-07-31T15:06:56.117Z,28.10
2022-07-31T15:09:49.071Z,27.80
2022-07-31T15:12:35.469Z,27.70
2022-07-31T15:15:21.702Z,27.60
2022-07-31T15:18:07.600Z,27.60
2022-07-31T15:20:54.303Z,27.50
2022-07-31T15:23:40.506Z,27.50
2022-07-31T15:26:26.412Z,27.50
2022-07-31T15:29:12.509Z,27.50
2022-07-31T15:31:58.786Z,27.60
2022-07-31T15:34:44.752Z,27.70
2022-07-31T15:37:33.923Z,27.70
2022-07-31T15:40:20.177Z,27.70
2022-07-31T15:43:06.101Z,27.70
2022-07-31T15:45:51.999Z,27.70
2022-07-31T15:48:38.358Z,27.70
2022-07-31T15:51:24.569Z,27.60
2022-07-31T15:54:10.534Z,27.60
2022-07-31T15:56:56.748Z,27.50
2022-07-31T15:59:43.494Z,27.30
2022-07-31T16:02:29.644Z,27.20
2022-07-31T16:05:21.837Z,27.10
2022-07-31T16:08:31.561Z,27.10
2022-07-31T16:11:20.860Z,27.00
2022-07-31T16:14:07.010Z,27.10
2022-07-31T16:16:52.988Z,27.00
2022-07-31T16:19:42.961Z,26.90
2022-07-31T16:22:28.950Z,26.80
2022-07-31T16:25:15.038Z,26.80
2022-07-31T16:28:00.950Z,26.80
2022-07-31T16:30:47.044Z,26.80
2022-07-31T16:33:33.045Z,26.80
2022-07-31T16:36:20.931Z,26.80
2022-07-31T16:39:20.061Z,26.80
2022-07-31T16:42:06.966Z,26.90
2022-07-31T16:44:56.485Z,26.90
2022-07-31T16:47:51.107Z,27.00
2022-07-31T16:50:37.877Z,27.00
2022-07-31T16:54:10.911Z,27.00
2022-07-31T16:56:32.962Z,27.10
2022-07-31T16:59:19.019Z,27.10
2022-07-31T17:02:06.406Z,27.10
2022-07-31T17:04:54.225Z,27.10
2022-07-31T17:07:40.491Z,27.10
2022-07-31T17:10:27.079Z,27.00
2022-07-31T17:13:14.150Z,26.90
2022-07-31T17:16:00.207Z,26.80
2022-07-31T17:18:49.472Z,26.70
2022-07-31T17:21:38.846Z,26.50
2022-07-31T17:24:31.638Z,26.50
2022-07-31T17:27:18.770Z,26.50
2022-07-31T17:30:05.493Z,26.40
2022-07-31T17:32:51.595Z,26.40
2022-07-31T17:35:37.662Z,26.40
2022-07-31T17:38:24.363Z,26.30
2022-07-31T17:41:24.655Z,26.20
2022-07-31T17:44:12.205Z,26.20
2022-07-31T17:46:58.319Z,26.10
2022-07-31T17:49:45.279Z,26.10
2022-07-31T17:52:31.167Z,26.10
2022-07-31T17:55:16.997Z,26.10
2022-07-31T17:58:02.963Z,26.10
2022-07-31T18:00:49.552Z,26.10
2022-07-31T18:03:35.494Z,26.10
2022-07-31T18:06:21.494Z,26.00
2022-07-31T18:09:07.339Z,26.00
2022-07-31T18:11:54.580Z,25.90
2022-07-31T18:14:40.877Z,25.90
2022-07-31T18:17:30.642Z,25.80
2022-07-31T18:20:19.346Z,25.70
2022-07-31T18:23:05.294Z,25.60
2022-07-31T18:25:58.401Z,25.60
2022-07-31T18:28:44.635Z,25.60
2022-07-31T18:31:34.394Z,25.50
2022-07-31T18:34:21.930Z,25.40
2022-07-31T18:37:07.823Z,25.30
2022-07-31T18:39:54.982Z,25.20
2022-07-31T18:42:41.182Z,25.10
2022-07-31T18:45:27.701Z,25.00
2022-07-31T18:48:13.773Z,25.00
2022-07-31T18:51:04.376Z,24.90
2022-07-31T18:53:51.948Z,24.80
2022-07-31T18:56:40.679Z,24.70
2022-07-31T18:59:26.869Z,24.60
2022-07-31T19:02:12.761Z,24.50
2022-07-31T19:04:58.811Z,24.50
2022-07-31T19:07:44.696Z,24.40
2022-07-31T19:10:35.160Z,24.30
2022-07-31T19:13:21.532Z,24.30
2022-07-31T19:16:07.583Z,24.20
2022-07-31T19:18:53.720Z,24.20
2022-07-31T19:21:42.968Z,24.10
2022-07-31T19:24:29.577Z,24.10
2022-07-31T19:27:16.214Z,24.00
2022-07-31T19:30:02.850Z,24.00
2022-07-31T19:32:49.029Z,24.00
2022-07-31T19:35:34.940Z,24.00
2022-07-31T19:38:44.286Z,24.00
2022-07-31T19:41:30.455Z,24.00
2022-07-31T19:44:16.406Z,24.00
2022-07-31T19:47:02.397Z,24.00
2022-07-31T19:49:48.374Z,24.00
2022-07-31T19:52:34.831Z,23.90
2022-07-31T19:55:20.865Z,23.80
2022-07-31T19:58:06.769Z,23.80
2022-07-31T20:00:52.746Z,23.80
2022-07-31T20:03:39.003Z,23.70
2022-07-31T20:06:26.215Z,23.60
2022-07-31T20:09:16.591Z,23.60
2022-07-31T20:12:03.041Z,23.50
2022-07-31T20:14:49.431Z,23.50
2022-07-31T20:17:35.730Z,23.50
2022-07-31T20:20:21.618Z,23.40
2022-07-31T20:23:07.659Z,23.50
2022-07-31T20:25:54.159Z,23.50
2022-07-31T20:28:40.604Z,23.50
2022-07-31T20:31:26.852Z,23.50
2022-07-31T20:34:13.278Z,23.50
2022-07-31T20:36:59.766Z,23.50
2022-07-31T20:39:45.753Z,23.50
2022-07-31T20:42:32.300Z,23.50
2022-07-31T20:45:18.255Z,23.50
2022-07-31T20:48:04.518Z,23.50
2022-07-31T20:50:51.081Z,23.50
2022-07-31T20:53:37.507Z,23.50
2022-07-31T20:56:23.729Z,23.50
2022-07-31T20:59:10.024Z,23.40
2022-07-31T21:01:59.982Z,23.40
2022-07-31T21:04:45.947Z,23.40
2022-07-31T21:07:32.064Z,23.40
2022-07-31T21:10:18.132Z,23.40
2022-07-31T21:13:04.415Z,23.40
2022-07-31T21:15:51.458Z,23.30
2022-07-31T21:18:43.042Z,23.30
2022-07-31T21:21:30.069Z,23.30
2022-07-31T21:24:16.351Z,23.20
2022-07-31T21:27:05.148Z,23.20
2022-07-31T21:29:55.149Z,23.10
2022-07-31T21:32:43.084Z,23.00
2022-07-31T21:35:36.337Z,22.90
2022-07-31T21:38:23.857Z,22.90
2022-07-31T21:41:09.776Z,22.80
2022-07-31T21:43:58.527Z,22.70
2022-07-31T21:46:48.215Z,22.70
2022-07-31T21:49:38.867Z,22.60
2022-07-31T21:52:27.292Z,22.60
2022-07-31T21:55:13.562Z,22.60
2022-07-31T21:58:00.168Z,22.60
2022-07-31T22:00:46.596Z,22.60
2022-07-31T22:03:33.077Z,22.60
2022-07-31T22:06:37.671Z,22.60
2022-07-31T22:09:26.593Z,22.50
2022-07-31T22:12:12.384Z,22.50
2022-07-31T22:14:58.453Z,22.50
2022-07-31T22:17:46.749Z,22.50
2022-07-31T22:20:33.247Z,22.40
2022-07-31T22:23:19.659Z,22.40
2022-07-31T22:26:06.373Z,22.30
2022-07-31T22:28:53.554Z,22.30
2022-07-31T22:31:39.797Z,22.30
2022-07-31T22:34:37.744Z,22.30
2022-07-31T22:37:26.080Z,22.30
2022-07-31T22:40:12.451Z,22.20
2022-07-31T22:42:59.278Z,22.20
2022-07-31T22:45:48.914Z,22.10
2022-07-31T22:48:36.188Z,22.10
2022-07-31T22:51:22.133Z,22.10
2022-07-31T22:54:08.021Z,22.00
2022-07-31T22:56:54.276Z,22.10
2022-07-31T22:59:43.174Z,22.10
2022-07-31T23:02:29.978Z,22.10
2022-07-31T23:05:16.437Z,22.20
2022-07-31T23:08:03.030Z,22.20
2022-07-31T23:10:48.979Z,22.30
2022-07-31T23:13:35.393Z,22.30
2022-07-31T23:16:21.708Z,22.30
2022-07-31T23:19:07.841Z,22.30
2022-07-31T23:21:54.023Z,22.30
2022-07-31T23:24:39.830Z,22.20
2022-07-31T23:27:26.108Z,22.20
2022-07-31T23:30:12.765Z,22.10
2022-07-31T23:32:58.862Z,22.10
2022-07-31T23:35:44.728Z,22.00
2022-07-31T23:38:30.518Z,22.00
2022-07-31T23:41:36.468Z,21.90
2022-07-31T23:44:25.130Z,21.90
2022-07-31T23:47:11.625Z,21.90
2022-07-31T23:50:04.042Z,21.90
2022-07-31T23:52:50.264Z,21.90
2022-07-31T23:55:38.508Z,22.00
2022-07-31T23:58:28.725Z,22.10
